Time;durP1;ratioP1;P1;durP2;ratioP2;P2;SDS_P1;SDS_P2;PMS_P1;PMS_P2;Temp;Humidity;BMP_temperature;BMP_pressure;BME280_temperature;BME280_humidity;BME280_pressure;Samples;Min_cycle;Max_cycle;Signal;HPM_P1;HPM_P2
2021/08/04 00:02:04;;;;;;;1.80;1.70;;;;;;;22.71;100.00;97335.56;5024663;28;20304;-66
2021/08/04 00:04:31;;;;;;;2.00;1.70;;;;;;;22.74;100.00;97339.91;5022221;28;20232;-67
2021/08/04 00:06:57;;;;;;;3.23;1.77;;;;;;;22.49;100.00;97291.47;5028837;28;20209;-66
2021/08/04 00:09:24;;;;;;;2.00;1.80;;;;;;;22.51;100.00;97297.53;5026902;28;20317;-66
2021/08/04 00:11:51;;;;;;;1.70;1.60;;;;;;;22.67;100.00;97327.78;5028632;28;20661;-66
2021/08/04 00:14:17;;;;;;;1.57;1.47;;;;;;;22.30;100.00;97264.63;5025462;28;20264;-67
2021/08/04 00:16:44;;;;;;;1.80;1.70;;;;;;;22.61;100.00;97317.38;5028502;28;20263;-67
2021/08/04 00:19:10;;;;;;;1.67;1.57;;;;;;;22.72;100.00;97332.19;5025690;28;20201;-67
2021/08/04 00:21:37;;;;;;;2.07;1.97;;;;;;;22.80;100.00;97340.88;5019414;28;20308;-66
2021/08/04 00:24:04;;;;;;;1.70;1.60;;;;;;;22.73;100.00;97328.78;5027309;28;20214;-66
2021/08/04 00:26:30;;;;;;;3.57;1.87;;;;;;;22.82;100.00;97344.34;5026808;28;20608;-67
2021/08/04 00:28:57;;;;;;;1.70;1.60;;;;;;;22.82;100.00;97335.78;5025344;28;20241;-67
2021/08/04 00:31:23;;;;;;;1.70;1.60;;;;;;;22.84;100.00;97344.38;5026734;28;20226;-66
2021/08/04 00:33:50;;;;;;;1.70;1.60;;;;;;;22.84;100.00;97340.13;5021144;28;20229;-67
2021/08/04 00:36:17;;;;;;;1.70;1.60;;;;;;;22.84;100.00;97349.50;5024491;28;20208;-67
2021/08/04 00:38:43;;;;;;;1.70;1.60;;;;;;;22.66;99.96;97309.00;5028004;28;20284;-66
2021/08/04 00:41:10;;;;;;;2.07;1.83;;;;;;;22.85;99.87;97346.09;5001217;28;20214;-67
2021/08/04 00:43:36;;;;;;;2.00;1.80;;;;;;;22.84;100.00;97347.81;5026152;28;20760;-67
2021/08/04 00:46:03;;;;;;;2.00;1.90;;;;;;;22.86;99.71;97353.81;5028036;28;20240;-67
2021/08/04 00:48:30;;;;;;;1.70;1.60;;;;;;;22.41;99.75;97268.25;5028583;28;20202;-65
2021/08/04 00:50:56;;;;;;;1.90;1.80;;;;;;;22.77;99.74;97332.28;5011151;28;20236;-67
2021/08/04 00:53:24;;;;;;;2.07;1.50;;;;;;;22.33;99.63;97257.00;5030053;28;20366;-67
2021/08/04 00:55:52;;;;;;;2.70;1.80;;;;;;;22.82;99.75;97339.22;5027475;28;20228;-67
2021/08/04 00:58:25;;;;;;;1.80;1.70;;;;;;;22.48;99.54;97285.53;5028925;28;20289;-67
2021/08/04 01:00:56;;;;;;;2.00;1.80;;;;;;;22.88;99.78;97348.72;5008408;28;20233;-66
2021/08/04 01:03:23;;;;;;;1.60;1.50;;;;;;;22.88;99.62;97349.59;5008981;28;20719;-66
2021/08/04 01:05:54;;;;;;;1.87;1.77;;;;;;;22.78;99.52;97328.88;5025105;28;20293;-67
2021/08/04 01:08:29;;;;;;;1.73;1.63;;;;;;;22.69;99.46;97313.31;5030543;28;20248;-66
2021/08/04 01:10:55;;;;;;;1.97;1.87;;;;;;;22.45;99.52;97274.34;5010307;28;20618;-66
2021/08/04 01:13:26;;;;;;;1.93;1.60;;;;;;;22.81;99.49;97336.63;5024646;28;20222;-67
2021/08/04 01:16:20;;;;;;;2.00;1.90;;;;;;;22.63;99.77;97311.50;5031423;28;20306;-67
2021/08/04 01:18:50;;;;;;;1.97;1.87;;;;;;;22.64;99.36;97305.53;5014463;28;20202;-66
2021/08/04 01:21:18;;;;;;;2.00;1.87;;;;;;;22.68;99.28;97309.88;5027153;28;20244;-67
2021/08/04 01:23:53;;;;;;;1.90;1.80;;;;;;;22.01;99.47;97196.56;5015435;28;20308;-67
2021/08/04 01:26:34;;;;;;;1.83;1.73;;;;;;;22.09;99.45;97225.75;5016343;28;20244;-66
2021/08/04 01:29:01;;;;;;;2.10;2.00;;;;;;;22.17;99.32;97229.34;5016792;28;20241;-67
2021/08/04 01:31:29;;;;;;;2.07;1.87;;;;;;;22.90;99.78;97349.63;5032361;28;20202;-67
2021/08/04 01:33:56;;;;;;;1.93;1.83;;;;;;;22.83;99.52;97343.50;5023284;28;20232;-67
2021/08/04 01:36:23;;;;;;;1.90;1.80;;;;;;;22.80;99.60;97324.66;5010650;28;20264;-64
2021/08/04 01:38:50;;;;;;;1.80;1.70;;;;;;;22.89;99.51;97341.06;5011874;28;20292;-66
2021/08/04 01:41:17;;;;;;;2.13;1.87;;;;;;;22.84;99.34;97336.69;5025291;28;20201;-67
2021/08/04 01:43:44;;;;;;;1.90;1.80;;;;;;;22.89;99.34;97338.50;5027305;28;20760;-67
2021/08/04 01:46:11;;;;;;;1.90;1.80;;;;;;;22.90;99.49;97341.94;5026434;28;20571;-67
2021/08/04 01:48:38;;;;;;;2.07;1.87;;;;;;;22.77;99.32;97317.75;5005107;28;20209;-66
2021/08/04 01:51:07;;;;;;;1.87;1.77;;;;;;;22.42;99.44;97246.97;5015953;28;20293;-66
2021/08/04 01:53:34;;;;;;;1.80;1.70;;;;;;;22.90;99.30;97331.69;5028232;28;20661;-67
2021/08/04 01:56:01;;;;;;;3.53;1.70;;;;;;;22.81;99.25;97313.56;5027395;28;20201;-66
2021/08/04 01:58:28;;;;;;;1.70;1.60;;;;;;;22.89;99.04;97330.81;5011009;28;20288;-65
2021/08/04 02:00:54;;;;;;;3.27;1.70;;;;;;;22.89;99.21;97337.66;5027622;28;20230;-66
2021/08/04 02:03:21;;;;;;;2.30;1.80;;;;;;;22.18;99.27;97219.97;5016288;28;20777;-66
2021/08/04 02:05:48;;;;;;;2.23;1.80;;;;;;;22.90;99.33;97339.38;5024166;28;20232;-67
2021/08/04 02:08:17;;;;;;;1.97;1.87;;;;;;;22.90;99.34;97336.81;5017865;28;20252;-66
2021/08/04 02:11:03;;;;;;;2.03;1.80;;;;;;;22.89;99.22;97340.22;5027702;28;20229;-66
2021/08/04 02:13:30;;;;;;;1.70;1.60;;;;;;;22.90;99.34;97344.50;5007299;28;20229;-67
2021/08/04 02:16:22;;;;;;;1.80;1.70;;;;;;;22.90;99.21;97339.38;5028454;28;20213;-66
2021/08/04 02:18:55;;;;;;;1.83;1.73;;;;;;;22.74;99.26;97312.56;5027755;28;20201;-66
2021/08/04 02:21:22;;;;;;;2.97;2.03;;;;;;;22.77;99.28;97319.47;5011965;28;20665;-67
2021/08/04 02:23:49;;;;;;;1.70;1.60;;;;;;;22.52;98.99;97271.09;5011347;28;20260;-67
2021/08/04 02:26:16;;;;;;;1.93;1.83;;;;;;;22.81;99.32;97324.69;5009593;28;20248;-67
2021/08/04 02:28:44;;;;;;;2.00;1.90;;;;;;;22.49;99.23;97265.88;5026160;28;20241;-67
2021/08/04 02:31:13;;;;;;;2.97;1.90;;;;;;;22.01;99.19;97193.13;5023875;28;20305;-66
2021/08/04 02:33:39;;;;;;;2.17;1.77;;;;;;;22.53;99.22;97271.13;5123515;22;20529;-66
2021/08/04 02:36:06;;;;;;;2.47;1.80;;;;;;;22.90;99.43;97331.69;4993523;28;20497;-66
2021/08/04 02:38:33;;;;;;;1.87;1.77;;;;;;;22.84;99.22;97329.00;5007625;28;20289;-66
2021/08/04 02:40:59;;;;;;;1.87;1.70;;;;;;;22.90;99.25;97336.81;4992556;28;20240;-66
2021/08/04 02:43:26;;;;;;;1.90;1.80;;;;;;;22.90;99.18;97336.81;5004979;28;20398;-65
2021/08/04 02:45:52;;;;;;;3.20;1.70;;;;;;;22.90;99.29;97349.63;5000203;28;20601;-67
2021/08/04 02:48:19;;;;;;;3.47;1.70;;;;;;;22.90;99.26;97342.81;5008841;28;20213;-66
2021/08/04 02:50:47;;;;;;;1.90;1.70;;;;;;;22.90;99.25;97337.69;5008693;28;20655;-66
2021/08/04 02:53:15;;;;;;;1.90;1.60;;;;;;;22.90;99.10;97331.69;5008388;28;20313;-66
2021/08/04 02:55:42;;;;;;;1.80;1.70;;;;;;;22.90;99.08;97329.13;5006325;28;20656;-66
2021/08/04 02:58:09;;;;;;;1.90;1.70;;;;;;;22.85;98.87;97323.03;5002708;28;20245;-66
2021/08/04 03:00:36;;;;;;;2.27;2.07;;;;;;;22.91;99.14;97323.16;5007679;28;20329;-67
2021/08/04 03:03:02;;;;;;;1.83;1.73;;;;;;;22.90;98.95;97334.25;5006931;28;20696;-66
2021/08/04 03:05:29;;;;;;;1.80;1.70;;;;;;;22.57;98.87;97269.50;5003416;28;20206;-66
2021/08/04 03:07:56;;;;;;;1.80;1.70;;;;;;;22.75;99.01;97308.31;5008170;28;20238;-67
2021/08/04 03:10:23;;;;;;;1.80;1.70;;;;;;;22.83;99.22;97329.84;5005371;28;20586;-67
2021/08/04 03:12:49;;;;;;;1.80;1.70;;;;;;;22.32;99.12;97247.59;5002637;28;20230;-66
2021/08/04 03:15:16;;;;;;;2.00;1.80;;;;;;;22.81;99.44;97331.50;5001010;28;20261;-66
2021/08/04 03:17:42;;;;;;;2.00;1.90;;;;;;;22.82;99.66;97335.78;5007828;28;20207;-66
2021/08/04 03:20:10;;;;;;;1.80;1.70;;;;;;;22.81;99.68;97332.38;5006916;28;20202;-66
2021/08/04 03:22:43;;;;;;;1.70;1.60;;;;;;;22.81;99.71;97328.94;5007578;28;20316;-66
2021/08/04 03:25:12;;;;;;;1.77;1.67;;;;;;;22.81;100.00;97322.13;5005834;28;20226;-66
2021/08/04 03:27:38;;;;;;;2.30;2.10;;;;;;;21.73;99.66;97144.72;5006006;28;20694;-66
2021/08/04 03:30:05;;;;;;;1.97;1.77;;;;;;;22.82;99.73;97331.53;5003588;28;20804;-66
2021/08/04 03:32:32;;;;;;;2.40;2.20;;;;;;;22.82;99.56;97331.53;5004339;28;20205;-66
2021/08/04 03:34:58;;;;;;;2.30;2.10;;;;;;;22.82;100.00;97335.78;5002357;28;20253;-66
2021/08/04 03:37:25;;;;;;;3.27;2.03;;;;;;;22.82;99.94;97341.78;5006549;28;20680;-66
2021/08/04 03:39:51;;;;;;;2.10;1.90;;;;;;;22.82;99.53;97334.09;5006549;28;20301;-66
2021/08/04 03:42:18;;;;;;;2.00;1.83;;;;;;;22.76;99.66;97315.16;5007112;28;20253;-67
2021/08/04 03:44:45;;;;;;;1.70;1.60;;;;;;;22.83;99.65;97332.41;5006904;28;20260;-66
2021/08/04 03:47:11;;;;;;;2.00;1.87;;;;;;;22.82;99.73;97325.53;5001159;28;20302;-66
2021/08/04 03:49:38;;;;;;;2.50;1.97;;;;;;;22.82;99.64;97323.84;5006322;28;20237;-66
2021/08/04 03:52:04;;;;;;;2.40;1.93;;;;;;;22.82;99.66;97328.97;5007378;28;20767;-66
2021/08/04 03:54:31;;;;;;;1.90;1.80;;;;;;;22.83;99.63;97333.25;5006113;28;20226;-66
2021/08/04 03:56:57;;;;;;;2.60;1.90;;;;;;;22.83;99.69;97334.97;5001977;28;20206;-66
2021/08/04 03:59:24;;;;;;;1.90;1.80;;;;;;;22.83;99.98;97327.28;5004938;28;20366;-66
2021/08/04 04:01:51;;;;;;;1.80;1.70;;;;;;;22.82;99.61;97331.53;5008129;28;20293;-65
2021/08/04 04:04:17;;;;;;;1.80;1.70;;;;;;;22.60;99.53;97313.09;5006616;28;20300;-67
2021/08/04 04:06:44;;;;;;;2.20;2.00;;;;;;;22.83;99.63;97335.81;5005364;28;20297;-66
2021/08/04 04:09:10;;;;;;;1.90;1.80;;;;;;;22.83;99.32;97329.84;5003141;28;20297;-66
2021/08/04 04:11:37;;;;;;;2.03;1.73;;;;;;;22.83;99.69;97327.28;5000369;28;20233;-66
2021/08/04 04:14:03;;;;;;;2.07;1.87;;;;;;;22.82;99.67;97330.66;5000343;28;20305;-66
2021/08/04 04:16:30;;;;;;;2.13;1.93;;;;;;;22.82;99.61;97326.41;5004468;28;20206;-65
2021/08/04 04:18:57;;;;;;;2.17;1.93;;;;;;;22.80;99.69;97316.97;5005474;28;20210;-66
2021/08/04 04:21:23;;;;;;;4.00;2.47;;;;;;;22.83;98.95;97320.44;5006232;28;20234;-66
2021/08/04 04:23:50;;;;;;;4.50;2.60;;;;;;;22.83;96.98;97319.59;5002173;28;20755;-66
2021/08/04 04:26:16;;;;;;;3.17;2.50;;;;;;;22.83;95.99;97309.34;5007356;28;20838;-66
2021/08/04 04:28:43;;;;;;;7.77;3.23;;;;;;;22.82;95.23;97315.28;5005908;28;20621;-64
2021/08/04 04:31:10;;;;;;;5.93;2.53;;;;;;;22.81;94.84;97329.81;5002219;28;20206;-66
2021/08/04 04:33:36;;;;;;;2.67;2.47;;;;;;;22.79;93.82;97323.78;5001588;28;20261;-66
2021/08/04 04:36:04;;;;;;;3.77;2.63;;;;;;;22.38;93.82;97255.41;5005449;28;20992;-66
2021/08/04 04:38:30;;;;;;;8.27;3.23;;;;;;;22.74;93.89;97324.53;5006909;28;20202;-66
2021/08/04 04:40:57;;;;;;;2.97;2.67;;;;;;;22.69;93.78;97323.56;5002306;28;20238;-66
2021/08/04 04:43:23;;;;;;;4.90;2.70;;;;;;;22.65;93.81;97327.75;5006778;28;20313;-66
2021/08/04 04:45:50;;;;;;;7.20;2.73;;;;;;;22.65;94.17;97325.19;5005235;28;20731;-66
2021/08/04 04:48:17;;;;;;;3.30;2.70;;;;;;;22.64;94.32;97330.25;5006248;28;20210;-66
2021/08/04 04:50:43;;;;;;;5.43;2.83;;;;;;;22.63;94.56;97320.88;5005964;28;20237;-66
2021/08/04 04:53:10;;;;;;;2.83;2.57;;;;;;;22.63;94.78;97328.53;5002229;28;20728;-66
2021/08/04 04:55:36;;;;;;;2.87;2.57;;;;;;;22.62;94.73;97332.78;5003595;28;20229;-67
2021/08/04 04:58:03;;;;;;;3.87;2.87;;;;;;;22.63;94.89;97331.09;5008721;28;20237;-66
2021/08/04 05:00:29;;;;;;;6.07;2.80;;;;;;;22.62;94.91;97332.78;5008941;28;20229;-66
2021/08/04 05:02:56;;;;;;;3.90;2.63;;;;;;;22.61;94.55;97341.31;4998883;28;20299;-66
2021/08/04 05:05:23;;;;;;;4.37;3.07;;;;;;;22.62;95.11;97330.22;5007815;28;20210;-66
2021/08/04 05:07:49;;;;;;;7.07;2.57;;;;;;;22.63;94.90;97336.22;5007679;28;20226;-65
2021/08/04 05:10:16;;;;;;;2.80;2.60;;;;;;;22.62;95.07;97334.50;5009538;28;20296;-66
2021/08/04 05:12:42;;;;;;;4.87;3.10;;;;;;;22.61;95.34;97340.44;5009835;28;20241;-65
2021/08/04 05:15:10;;;;;;;3.47;2.60;;;;;;;22.62;95.21;97342.19;5005446;28;20321;-65
2021/08/04 05:17:37;;;;;;;6.97;2.43;;;;;;;22.60;95.17;97342.16;5003961;28;20234;-66
2021/08/04 05:20:05;;;;;;;8.70;3.30;;;;;;;22.60;95.42;97354.97;5007108;28;20296;-65
2021/08/04 05:22:32;;;;;;;3.00;2.60;;;;;;;22.60;95.44;97344.72;4978316;28;20206;-66
2021/08/04 05:24:58;;;;;;;4.90;2.60;;;;;;;22.61;95.49;97348.13;4999880;28;20257;-66
2021/08/04 05:27:25;;;;;;;5.37;2.90;;;;;;;22.60;95.58;97352.41;5004894;28;20256;-66
2021/08/04 05:29:51;;;;;;;3.97;2.43;;;;;;;22.61;95.71;97345.56;5004979;28;20577;-66
2021/08/04 05:32:18;;;;;;;3.90;2.90;;;;;;;22.60;95.68;97352.41;5004777;28;20216;-66
2021/08/04 05:34:44;;;;;;;5.93;2.70;;;;;;;22.60;95.61;97354.09;5006793;28;20342;-67
2021/08/04 05:37:11;;;;;;;4.67;3.00;;;;;;;22.60;95.74;97347.28;5010244;28;20233;-66
2021/08/04 05:39:37;;;;;;;3.13;2.70;;;;;;;22.58;95.79;97348.06;5002240;28;20241;-66
2021/08/04 05:42:04;;;;;;;5.30;3.00;;;;;;;22.57;95.96;97343.78;5007701;28;20322;-66
2021/08/04 05:44:31;;;;;;;4.93;3.13;;;;;;;22.55;96.14;97341.19;5009173;28;20265;-66
2021/08/04 05:46:57;;;;;;;3.00;2.70;;;;;;;22.53;96.33;97347.13;5009010;28;20289;-66
2021/08/04 05:49:24;;;;;;;3.47;2.67;;;;;;;22.52;96.45;97345.38;5008080;28;20203;-66
2021/08/04 05:51:51;;;;;;;3.40;2.57;;;;;;;22.51;96.45;97349.63;5009507;28;20226;-66
2021/08/04 05:54:19;;;;;;;4.07;3.07;;;;;;;22.51;96.40;97341.97;5003125;28;20756;-67
2021/08/04 05:56:46;;;;;;;3.57;3.07;;;;;;;22.52;96.44;97341.13;5003587;28;20235;-66
2021/08/04 05:59:13;;;;;;;5.37;3.00;;;;;;;22.52;96.15;97345.38;4995410;28;20305;-66
2021/08/04 06:01:39;;;;;;;3.30;2.80;;;;;;;22.53;96.68;97339.44;5001982;28;20258;-67
2021/08/04 06:04:06;;;;;;;3.07;2.60;;;;;;;22.53;96.73;97342.84;5002890;28;20245;-66
2021/08/04 06:06:32;;;;;;;3.17;2.87;;;;;;;22.54;96.80;97336.03;5002070;28;20297;-67
2021/08/04 06:08:59;;;;;;;3.23;2.93;;;;;;;22.54;96.47;97346.28;5006043;28;20272;-67
2021/08/04 06:11:26;;;;;;;4.40;2.90;;;;;;;22.55;96.28;97348.88;5006585;28;20294;-66
2021/08/04 06:13:52;;;;;;;4.43;3.03;;;;;;;22.55;95.77;97348.00;5002248;28;20253;-64
2021/08/04 06:16:19;;;;;;;12.00;3.27;;;;;;;21.45;95.54;97151.75;5007118;28;20218;-66
2021/08/04 06:18:46;;;;;;;7.93;3.40;;;;;;;22.57;95.40;97338.66;5005780;28;20211;-66
2021/08/04 06:21:12;;;;;;;7.03;3.37;;;;;;;22.57;95.48;97342.09;5007371;28;20305;-67
2021/08/04 06:23:39;;;;;;;9.17;3.50;;;;;;;22.58;94.72;97332.69;5002280;28;20707;-66
2021/08/04 06:26:05;;;;;;;4.80;3.00;;;;;;;22.59;94.28;97339.56;5003772;28;20287;-66
2021/08/04 06:28:42;;;;;;;6.27;2.93;;;;;;;22.54;94.36;97331.78;5006589;28;20202;-65
2021/08/04 06:31:08;;;;;;;6.87;2.97;;;;;;;22.59;94.49;97345.53;4996369;28;20238;-67
2021/08/04 06:33:35;;;;;;;7.30;3.03;;;;;;;22.60;94.53;97348.97;5006714;28;20786;-66
2021/08/04 06:36:02;;;;;;;6.73;2.73;;;;;;;22.61;94.78;97353.25;5005496;28;20615;-66
2021/08/04 06:38:28;;;;;;;3.37;2.60;;;;;;;22.61;95.23;97350.69;5008216;28;20202;-66
2021/08/04 06:40:55;;;;;;;5.40;2.93;;;;;;;22.60;95.27;97342.16;4991425;28;20317;-66
2021/08/04 06:43:22;;;;;;;6.37;2.93;;;;;;;22.59;95.50;97350.66;5003921;28;20317;-66
2021/08/04 06:45:49;;;;;;;6.27;2.77;;;;;;;22.58;95.62;97348.94;5002185;28;20210;-66
2021/08/04 06:48:16;;;;;;;3.50;2.83;;;;;;;22.58;95.79;97355.75;5003433;28;20207;-65
2021/08/04 06:50:42;;;;;;;7.43;2.83;;;;;;;22.56;96.00;97352.31;4993613;28;20202;-66
2021/08/04 06:53:09;;;;;;;5.80;2.77;;;;;;;22.55;96.67;97353.13;4999923;28;20498;-66
2021/08/04 06:55:36;;;;;;;6.03;2.90;;;;;;;22.55;96.83;97348.88;5008351;28;20297;-66
2021/08/04 06:58:03;;;;;;;3.60;2.80;;;;;;;22.56;96.78;97353.16;5007273;28;20231;-66
2021/08/04 07:00:30;;;;;;;4.10;2.80;;;;;;;22.57;96.83;97343.78;5006036;28;20627;-66
2021/08/04 07:02:56;;;;;;;5.27;2.70;;;;;;;22.58;96.92;97343.81;4999768;28;20754;-65
2021/08/04 07:05:23;;;;;;;4.10;2.80;;;;;;;22.58;97.09;97343.81;4998773;28;20269;-66
2021/08/04 07:07:50;;;;;;;3.93;3.07;;;;;;;22.59;97.03;97348.09;5001695;28;20696;-66
2021/08/04 07:10:16;;;;;;;3.07;2.50;;;;;;;22.60;97.26;97347.28;4984923;28;20666;-66
2021/08/04 07:12:43;;;;;;;4.20;2.43;;;;;;;22.60;97.22;97344.72;5003203;28;20241;-66
2021/08/04 07:15:10;;;;;;;2.77;2.47;;;;;;;22.61;97.25;97345.56;5002563;28;20237;-66
2021/08/04 07:17:46;;;;;;;3.40;2.40;;;;;;;22.62;97.33;97340.47;4998714;28;20234;-66
2021/08/04 07:20:14;;;;;;;3.10;2.80;;;;;;;22.62;97.32;97345.59;5000004;28;20202;-66
2021/08/04 07:22:40;;;;;;;5.37;2.80;;;;;;;22.64;97.29;97348.19;5005992;28;20233;-66
2021/08/04 07:25:08;;;;;;;7.00;2.67;;;;;;;22.64;97.39;97350.75;5004310;28;20234;-66
2021/08/04 07:27:35;;;;;;;3.10;2.53;;;;;;;22.65;97.41;97355.91;4999799;28;20238;-66
2021/08/04 07:30:02;;;;;;;3.10;2.70;;;;;;;22.66;97.27;97346.53;5000743;28;20210;-67
2021/08/04 07:32:29;;;;;;;3.23;2.40;;;;;;;22.65;97.69;97348.22;5004706;28;20289;-66
2021/08/04 07:35:00;;;;;;;3.23;2.87;;;;;;;22.68;97.41;97348.28;5005667;28;20264;-67
2021/08/04 07:37:28;;;;;;;3.80;2.60;;;;;;;22.66;97.34;97342.28;4998498;28;20268;-67
2021/08/04 07:39:55;;;;;;;2.93;2.50;;;;;;;22.69;97.33;97338.94;5001699;28;20203;-66
2021/08/04 07:42:23;;;;;;;4.30;2.87;;;;;;;22.67;97.40;97338.88;5004475;28;20240;-66
2021/08/04 07:44:49;;;;;;;3.73;3.00;;;;;;;22.69;97.46;97349.16;5005161;28;20231;-66
2021/08/04 07:47:16;;;;;;;5.00;2.40;;;;;;;22.68;97.61;97343.16;5002625;28;20657;-67
2021/08/04 07:49:43;;;;;;;3.03;2.67;;;;;;;22.67;97.38;97348.25;4998339;28;20285;-66
2021/08/04 07:52:09;;;;;;;4.37;2.60;;;;;;;22.65;97.45;97337.97;4999305;28;20253;-66
2021/08/04 07:54:36;;;;;;;3.50;2.60;;;;;;;22.63;97.73;97339.66;5003197;28;20261;-67
2021/08/04 07:57:03;;;;;;;4.60;2.80;;;;;;;22.61;97.53;97343.88;5003770;28;20202;-66
2021/08/04 07:59:29;;;;;;;5.30;2.50;;;;;;;22.62;97.71;97342.19;5003440;28;20305;-66
2021/08/04 08:01:56;;;;;;;3.17;2.30;;;;;;;22.61;97.96;97346.44;5001093;28;20237;-66
2021/08/04 08:04:23;;;;;;;3.07;2.40;;;;;;;22.62;98.01;97342.19;5004868;28;20724;-66
2021/08/04 08:06:50;;;;;;;5.37;2.83;;;;;;;22.61;98.15;97343.00;4998748;28;20731;-67
2021/08/04 08:09:21;;;;;;;3.47;2.37;;;;;;;22.62;98.10;97352.44;4999644;28;20921;-66
2021/08/04 08:11:50;;;;;;;2.60;2.40;;;;;;;22.62;98.12;97350.72;4986571;28;20261;-67
2021/08/04 08:14:17;;;;;;;3.17;2.47;;;;;;;22.63;98.09;97355.03;5004672;28;20734;-66
2021/08/04 08:16:43;;;;;;;5.37;2.50;;;;;;;22.64;97.88;97345.63;5001198;28;20289;-66
2021/08/04 08:19:10;;;;;;;2.40;2.20;;;;;;;22.65;97.77;97340.53;5002450;28;20517;-66
2021/08/04 08:21:37;;;;;;;2.57;2.37;;;;;;;22.66;98.02;97349.09;5001021;28;20237;-66
2021/08/04 08:24:03;;;;;;;4.20;2.57;;;;;;;22.67;98.14;97332.91;5003834;28;20781;-66
2021/08/04 08:26:30;;;;;;;3.37;2.70;;;;;;;22.67;98.05;97327.78;5004640;28;20285;-66
2021/08/04 08:28:57;;;;;;;2.67;2.13;;;;;;;22.68;98.10;97340.63;5004957;28;20229;-66
2021/08/04 08:31:23;;;;;;;3.13;2.50;;;;;;;22.70;98.17;97348.31;5004705;28;20300;-66
2021/08/04 08:33:50;;;;;;;2.77;2.30;;;;;;;22.29;97.82;97283.38;5007260;23;20209;-66
2021/08/04 08:36:16;;;;;;;3.70;2.60;;;;;;;22.63;98.02;97338.78;4972123;28;20238;-66
2021/08/04 08:38:43;;;;;;;4.43;2.57;;;;;;;22.71;98.13;97362.88;5010359;28;20241;-65
2021/08/04 08:41:10;;;;;;;4.33;2.90;;;;;;;22.72;97.96;97356.94;5004348;28;20206;-66
2021/08/04 08:43:36;;;;;;;2.53;2.30;;;;;;;22.72;97.59;97354.38;5000438;28;20238;-66
2021/08/04 08:46:05;;;;;;;2.60;2.40;;;;;;;22.73;98.03;97353.53;4992796;28;20202;-66
2021/08/04 08:48:31;;;;;;;6.73;2.57;;;;;;;22.72;98.00;97356.94;4990717;28;20207;-66
2021/08/04 08:50:58;;;;;;;2.50;2.30;;;;;;;22.72;98.00;97344.13;4988832;28;20203;-66
2021/08/04 08:53:24;;;;;;;2.57;2.30;;;;;;;22.73;97.89;97340.72;4960561;28;20294;-66
2021/08/04 08:55:51;;;;;;;2.50;2.30;;;;;;;22.72;97.83;97341.56;4985297;28;20393;-66
2021/08/04 08:58:17;;;;;;;2.90;2.40;;;;;;;22.71;97.86;97334.72;4987486;28;20322;-66
2021/08/04 09:00:44;;;;;;;2.40;2.20;;;;;;;22.69;97.88;97333.81;4987366;28;20321;-66
2021/08/04 09:03:11;;;;;;;2.70;2.50;;;;;;;22.66;97.87;97326.06;4992270;28;20289;-66
2021/08/04 09:05:48;;;;;;;3.60;2.30;;;;;;;22.64;98.00;97325.16;4992559;28;20285;-66
2021/08/04 09:08:22;;;;;;;2.77;2.57;;;;;;;22.64;98.30;97330.25;4975655;28;20272;-66
2021/08/04 09:10:48;;;;;;;3.27;2.17;;;;;;;22.65;98.11;97332.03;4993126;28;20627;-66
2021/08/04 09:13:15;;;;;;;2.73;2.20;;;;;;;22.66;98.39;97333.72;4988644;28;20238;-66
2021/08/04 09:15:42;;;;;;;2.77;2.53;;;;;;;22.66;98.35;97331.19;4991415;28;20700;-65
2021/08/04 09:18:14;;;;;;;2.73;2.30;;;;;;;22.66;98.35;97332.06;4976985;28;20210;-66
2021/08/04 09:20:44;;;;;;;4.80;2.10;;;;;;;22.65;98.51;97325.19;4986526;28;20253;-66
2021/08/04 09:23:13;;;;;;;2.90;2.47;;;;;;;22.68;98.24;97324.41;4992447;28;20352;-65
2021/08/04 09:25:40;;;;;;;2.40;2.20;;;;;;;22.68;98.36;97316.72;4987232;28;20317;-66
2021/08/04 09:28:07;;;;;;;2.43;2.23;;;;;;;22.68;98.39;97317.56;4991870;28;20641;-66
2021/08/04 09:30:35;;;;;;;2.50;2.30;;;;;;;22.69;98.35;97321.88;4982548;28;20290;-66
2021/08/04 09:33:11;;;;;;;2.13;2.00;;;;;;;22.70;98.39;97323.59;4986788;28;20237;-66
2021/08/04 09:35:45;;;;;;;2.43;2.23;;;;;;;22.70;98.21;97315.03;4991208;28;20735;-66
2021/08/04 09:38:13;;;;;;;2.73;1.90;;;;;;;22.53;98.28;97290.78;4989079;28;20679;-64
2021/08/04 09:40:45;;;;;;;2.50;2.30;;;;;;;22.71;98.18;97315.06;4990738;28;20210;-66
2021/08/04 09:43:22;;;;;;;2.57;2.37;;;;;;;22.72;98.31;97309.13;4979715;28;20673;-65
2021/08/04 09:45:51;;;;;;;2.20;2.00;;;;;;;22.71;98.07;97309.09;4995141;28;20610;-66
2021/08/04 09:48:23;;;;;;;2.83;2.17;;;;;;;22.64;98.01;97296.97;4994058;28;20334;-66
2021/08/04 09:50:58;;;;;;;2.67;2.20;;;;;;;22.72;98.15;97310.81;4985039;28;20253;-66
2021/08/04 09:53:34;;;;;;;3.23;2.50;;;;;;;22.73;98.30;97309.97;4990145;28;20234;-66
2021/08/04 09:56:33;;;;;;;4.63;2.00;;;;;;;22.72;98.07;97305.69;4996104;28;20213;-66
2021/08/04 09:59:07;;;;;;;2.40;2.20;;;;;;;22.73;98.18;97304.84;4982211;28;20217;-66
2021/08/04 10:01:38;;;;;;;2.40;2.13;;;;;;;22.71;98.02;97294.56;4993842;28;20305;-66
2021/08/04 10:04:08;;;;;;;2.83;2.30;;;;;;;22.70;98.08;97295.41;4992164;28;20974;-66
2021/08/04 10:06:35;;;;;;;3.77;2.47;;;;;;;22.68;98.08;97298.78;4993553;28;20231;-66
2021/08/04 10:09:07;;;;;;;2.30;2.10;;;;;;;22.65;98.28;97289.31;4978195;28;20210;-66
2021/08/04 10:11:33;;;;;;;4.17;2.27;;;;;;;22.64;98.29;97290.16;4992809;28;20286;-66
2021/08/04 10:14:00;;;;;;;2.67;2.47;;;;;;;22.64;98.47;97287.59;4992675;28;20715;-66
2021/08/04 10:16:32;;;;;;;2.57;2.33;;;;;;;22.64;98.55;97286.72;4990463;28;20203;-66
2021/08/04 10:19:00;;;;;;;2.73;2.43;;;;;;;22.63;98.65;97285.88;4988958;28;20199;-66
2021/08/04 10:21:27;;;;;;;3.50;2.30;;;;;;;22.65;98.68;97281.63;4992078;28;20313;-66
2021/08/04 10:23:53;;;;;;;2.30;2.10;;;;;;;22.64;98.74;97279.91;4993859;28;20322;-66
2021/08/04 10:26:21;;;;;;;2.43;2.23;;;;;;;22.65;98.98;97278.22;4995801;28;20629;-66
2021/08/04 10:28:53;;;;;;;3.47;2.30;;;;;;;22.66;98.99;97283.38;4990156;28;20202;-66
2021/08/04 10:31:20;;;;;;;2.47;2.10;;;;;;;22.68;98.94;97291.94;4995321;28;20750;-66
2021/08/04 10:33:47;;;;;;;2.13;1.97;;;;;;;22.70;99.09;97289.41;4994048;28;20207;-66
2021/08/04 10:36:17;;;;;;;2.93;2.13;;;;;;;22.69;98.94;97277.44;4981217;28;20302;-66
2021/08/04 10:38:45;;;;;;;2.43;2.20;;;;;;;22.63;99.10;97275.63;4961750;28;20297;-65
2021/08/04 10:41:18;;;;;;;3.07;2.37;;;;;;;22.70;99.22;97295.41;4967813;28;20233;-66
2021/08/04 10:43:52;;;;;;;2.20;2.00;;;;;;;22.71;99.16;97291.16;4991304;28;20588;-66
2021/08/04 10:46:27;;;;;;;2.90;2.20;;;;;;;22.71;98.90;97288.59;4994709;28;20293;-66
2021/08/04 10:49:06;;;;;;;2.30;2.10;;;;;;;22.72;98.93;97282.63;4993534;28;20209;-66
2021/08/04 10:51:37;;;;;;;2.10;1.90;;;;;;;22.64;98.76;97274.78;4989374;28;20314;-66
2021/08/04 10:54:19;;;;;;;2.33;2.13;;;;;;;22.72;98.79;97280.94;4984657;28;20353;-66
2021/08/04 10:56:48;;;;;;;2.43;2.20;;;;;;;22.72;98.71;97280.94;4989323;28;20253;-66
2021/08/04 10:59:14;;;;;;;2.30;2.10;;;;;;;22.72;98.70;97293.75;4992766;28;20213;-65
2021/08/04 11:01:45;;;;;;;2.43;2.23;;;;;;;22.72;98.67;97280.94;4992942;28;20258;-66
2021/08/04 11:04:13;;;;;;;2.30;2.10;;;;;;;22.72;98.89;97280.06;4987636;28;20235;-66
2021/08/04 11:07:07;;;;;;;2.30;2.10;;;;;;;22.71;98.68;97271.50;4983828;28;20257;-66
2021/08/04 11:09:45;;;;;;;2.40;2.07;;;;;;;22.72;98.73;97278.38;4988108;28;20205;-66
2021/08/04 11:12:13;;;;;;;2.10;1.90;;;;;;;22.71;98.68;97279.19;4990457;28;20238;-66
2021/08/04 11:14:53;;;;;;;2.07;1.87;;;;;;;22.70;98.65;97271.47;4991246;28;20249;-67
2021/08/04 11:17:25;;;;;;;2.27;2.00;;;;;;;22.65;98.68;97266.25;4990029;28;20614;-66
2021/08/04 11:19:57;;;;;;;2.57;2.37;;;;;;;22.66;98.74;97264.56;4990474;28;20822;-65
2021/08/04 11:22:40;;;;;;;2.20;2.00;;;;;;;22.64;98.80;97261.09;4992279;28;20210;-66
2021/08/04 11:25:08;;;;;;;2.73;2.40;;;;;;;22.65;98.91;97255.16;4997191;28;20901;-66
2021/08/04 11:27:44;;;;;;;2.20;2.00;;;;;;;22.64;99.07;97246.59;4993056;28;20205;-65
2021/08/04 11:30:12;;;;;;;2.23;2.10;;;;;;;22.64;99.10;97244.06;4985342;28;20699;-66
2021/08/04 11:32:39;;;;;;;2.27;2.07;;;;;;;22.65;99.08;97242.38;4988059;28;20238;-66
2021/08/04 11:35:18;;;;;;;2.03;1.87;;;;;;;22.65;99.07;97243.22;4987609;28;20317;-66
2021/08/04 11:37:44;;;;;;;2.00;1.90;;;;;;;22.66;98.57;97236.41;4979264;28;20739;-66